createdAt,value
2022-11-13T00:01:28.096Z,58.59
2022-11-13T00:04:13.157Z,58.49
2022-11-13T00:06:59.491Z,58.43
2022-11-13T00:09:44.966Z,58.50
2022-11-13T00:12:30.621Z,58.65
2022-11-13T00:15:18.565Z,58.60
2022-11-13T00:18:03.906Z,58.49
2022-11-13T00:20:49.010Z,58.50
2022-11-13T00:23:35.681Z,58.43
2022-11-13T00:26:26.422Z,58.44
2022-11-13T00:29:11.303Z,58.60
2022-11-13T00:31:56.885Z,58.36
2022-11-13T00:34:48.296Z,58.33
2022-11-13T00:37:33.925Z,58.54
2022-11-13T00:40:19.125Z,58.60
2022-11-13T00:43:03.938Z,58.59
2022-11-13T00:45:48.927Z,58.64
2022-11-13T00:48:34.666Z,58.71
2022-11-13T00:51:19.689Z,58.59
2022-11-13T00:54:04.939Z,58.58
2022-11-13T00:57:05.081Z,58.58
2022-11-13T00:59:50.103Z,58.64
2022-11-13T01:02:34.873Z,58.65
2022-11-13T01:05:20.537Z,58.73
2022-11-13T01:08:06.169Z,58.76
2022-11-13T01:10:53.726Z,58.59
2022-11-13T01:13:41.303Z,58.76
2022-11-13T01:16:27.810Z,58.88
2022-11-13T01:19:12.516Z,58.45
2022-11-13T01:21:57.537Z,58.51
2022-11-13T01:24:46.605Z,58.68
2022-11-13T01:27:31.908Z,58.48
2022-11-13T01:30:17.281Z,58.75
2022-11-13T01:33:02.235Z,58.62
2022-11-13T01:35:48.602Z,58.72
2022-11-13T01:38:36.912Z,58.64
2022-11-13T01:41:32.083Z,58.63
2022-11-13T01:44:21.233Z,58.67
2022-11-13T01:47:06.126Z,58.57
2022-11-13T01:49:54.836Z,58.84
2022-11-13T01:52:41.206Z,58.81
2022-11-13T01:55:30.772Z,58.63
2022-11-13T01:58:16.386Z,58.70
2022-11-13T02:01:01.642Z,58.50
2022-11-13T02:03:46.436Z,58.37
2022-11-13T02:06:40.518Z,58.47
2022-11-13T02:09:42.704Z,58.60
2022-11-13T02:12:37.167Z,58.45
2022-11-13T02:15:25.860Z,58.46
2022-11-13T02:18:11.237Z,58.66
2022-11-13T02:21:14.908Z,58.79
2022-11-13T02:24:12.221Z,58.62
2022-11-13T02:27:02.130Z,58.74
2022-11-13T02:29:47.361Z,58.66
2022-11-13T02:32:32.873Z,58.55
2022-11-13T02:35:26.385Z,58.38
2022-11-13T02:38:11.598Z,58.49
2022-11-13T02:40:56.954Z,58.97
2022-11-13T02:43:41.983Z,58.15
2022-11-13T02:46:28.358Z,58.22
2022-11-13T02:49:13.280Z,58.46
2022-11-13T02:51:58.325Z,58.56
2022-11-13T02:54:44.384Z,58.34
2022-11-13T02:57:29.763Z,58.35
2022-11-13T03:00:15.312Z,58.27
2022-11-13T03:03:00.259Z,58.28
2022-11-13T03:05:49.696Z,58.37
2022-11-13T03:08:35.692Z,58.23
2022-11-13T03:11:21.355Z,58.16
2022-11-13T03:14:06.270Z,57.82
2022-11-13T03:17:05.623Z,57.87
2022-11-13T03:19:50.754Z,57.81
2022-11-13T03:22:35.727Z,57.79
2022-11-13T03:25:25.195Z,57.90
2022-11-13T03:28:09.965Z,57.78
2022-11-13T03:30:54.935Z,57.67
2022-11-13T03:33:40.018Z,57.61
2022-11-13T03:36:25.507Z,57.48
2022-11-13T03:39:10.901Z,57.57
2022-11-13T03:41:56.115Z,57.52
2022-11-13T03:44:41.105Z,57.61
2022-11-13T03:47:26.060Z,57.55
2022-11-13T03:50:10.954Z,57.57
2022-11-13T03:52:56.261Z,57.39
2022-11-13T03:55:45.165Z,57.51
2022-11-13T03:58:30.344Z,57.55
2022-11-13T04:01:15.985Z,57.38
2022-11-13T04:04:01.186Z,57.37
2022-11-13T04:06:47.396Z,57.29
2022-11-13T04:09:32.450Z,57.22
2022-11-13T04:12:17.528Z,57.32
2022-11-13T04:15:04.667Z,57.24
2022-11-13T04:17:50.088Z,57.05
2022-11-13T04:20:35.202Z,57.07
2022-11-13T04:23:20.564Z,56.79
2022-11-13T04:26:06.381Z,56.97
2022-11-13T04:28:51.847Z,57.17
2022-11-13T04:31:36.932Z,56.92
2022-11-13T04:34:25.037Z,57.02
2022-11-13T04:37:10.482Z,56.72
2022-11-13T04:39:55.601Z,56.94
2022-11-13T04:42:50.715Z,56.84
2022-11-13T04:45:36.992Z,56.76
2022-11-13T04:48:22.123Z,56.81
2022-11-13T04:51:07.079Z,56.44
2022-11-13T04:53:52.357Z,57.11
2022-11-13T04:56:37.552Z,56.95
2022-11-13T04:59:22.590Z,56.83
2022-11-13T05:02:07.976Z,56.76
2022-11-13T05:04:55.678Z,56.81
2022-11-13T05:07:42.788Z,56.86
2022-11-13T05:10:27.879Z,56.95
2022-11-13T05:13:13.005Z,56.93
2022-11-13T05:16:08.268Z,56.84
2022-11-13T05:18:53.301Z,56.87
2022-11-13T05:21:39.356Z,56.95
2022-11-13T05:24:28.830Z,56.98
2022-11-13T05:27:17.250Z,56.79
2022-11-13T05:30:03.587Z,56.78
2022-11-13T05:32:48.443Z,56.76
2022-11-13T05:35:33.321Z,56.82
2022-11-13T05:38:18.413Z,57.02
2022-11-13T05:41:09.096Z,57.02
2022-11-13T05:43:59.248Z,57.02
2022-11-13T05:46:46.240Z,56.92
2022-11-13T05:49:31.369Z,57.00
2022-11-13T05:52:16.217Z,56.88
2022-11-13T05:55:02.345Z,56.90
2022-11-13T05:57:47.480Z,56.92
2022-11-13T06:00:32.453Z,56.83
2022-11-13T06:03:17.572Z,56.90
2022-11-13T06:06:04.286Z,57.02
2022-11-13T06:08:50.892Z,56.78
2022-11-13T06:11:36.181Z,56.87
2022-11-13T06:14:24.594Z,56.83
2022-11-13T06:17:09.567Z,56.63
2022-11-13T06:19:54.589Z,57.03
2022-11-13T06:22:39.639Z,56.78
2022-11-13T06:25:24.669Z,56.65
2022-11-13T06:28:09.953Z,56.87
2022-11-13T06:30:54.693Z,56.62
2022-11-13T06:33:41.278Z,56.88
2022-11-13T06:36:28.965Z,56.55
2022-11-13T06:39:14.238Z,56.66
2022-11-13T06:41:59.486Z,56.69
2022-11-13T06:44:46.156Z,56.74
2022-11-13T06:47:31.008Z,56.64
2022-11-13T06:50:15.936Z,56.98
2022-11-13T06:53:00.862Z,56.54
2022-11-13T06:55:49.923Z,56.59
2022-11-13T06:58:35.598Z,56.64
2022-11-13T07:01:23.033Z,56.41
2022-11-13T07:04:11.725Z,56.34
2022-11-13T07:07:05.263Z,56.25
2022-11-13T07:09:50.139Z,56.00
2022-11-13T07:12:35.248Z,56.01
2022-11-13T07:15:20.642Z,55.99
2022-11-13T07:18:06.921Z,56.05
2022-11-13T07:20:52.012Z,55.92
2022-11-13T07:23:42.860Z,55.88
2022-11-13T07:26:28.230Z,55.78
2022-11-13T07:29:13.045Z,55.74
2022-11-13T07:31:57.989Z,55.80
2022-11-13T07:34:44.409Z,55.58
2022-11-13T07:37:29.597Z,55.98
2022-11-13T07:40:14.626Z,55.81
2022-11-13T07:43:01.093Z,56.00
2022-11-13T07:46:13.070Z,56.15
2022-11-13T07:48:57.909Z,56.19
2022-11-13T07:51:43.416Z,56.05
2022-11-13T07:54:31.581Z,55.70
2022-11-13T07:57:17.034Z,55.42
2022-11-13T08:00:02.046Z,55.55
2022-11-13T08:02:47.829Z,55.03
2022-11-13T08:05:37.361Z,55.09
2022-11-13T08:08:22.589Z,54.75
2022-11-13T08:11:09.355Z,54.73
2022-11-13T08:13:54.538Z,54.62
2022-11-13T08:16:40.778Z,54.36
2022-11-13T08:19:25.584Z,54.50
2022-11-13T08:22:10.632Z,54.32
2022-11-13T08:24:58.005Z,54.32
2022-11-13T08:27:43.037Z,54.44
2022-11-13T08:30:28.911Z,54.00
2022-11-13T08:33:13.863Z,54.25
2022-11-13T08:36:23.930Z,54.25
2022-11-13T08:39:09.593Z,54.28
2022-11-13T08:42:04.746Z,54.05
2022-11-13T08:44:49.955Z,53.93
2022-11-13T08:47:35.407Z,53.97
2022-11-13T08:50:20.842Z,54.15
2022-11-13T08:53:06.514Z,54.26
2022-11-13T08:55:52.785Z,54.15
2022-11-13T08:58:37.924Z,54.13
2022-11-13T09:01:22.889Z,53.93
2022-11-13T09:04:08.050Z,53.96
2022-11-13T09:07:04.033Z,53.70
2022-11-13T09:09:49.029Z,54.03
2022-11-13T09:12:34.000Z,53.90
2022-11-13T09:15:24.595Z,53.40
2022-11-13T09:18:10.148Z,52.92
2022-11-13T09:20:56.017Z,52.90
2022-11-13T09:23:40.819Z,53.08
2022-11-13T09:26:25.605Z,52.88
2022-11-13T09:29:10.684Z,52.79
2022-11-13T09:31:56.162Z,52.28
2022-11-13T09:34:41.282Z,52.65
2022-11-13T09:37:26.342Z,52.55
2022-11-13T09:40:24.930Z,52.26
2022-11-13T09:43:21.553Z,51.90
2022-11-13T09:46:27.711Z,51.95
2022-11-13T09:49:32.653Z,51.81
2022-11-13T09:52:25.956Z,51.63
2022-11-13T09:55:16.389Z,51.03
2022-11-13T09:58:12.585Z,51.09
2022-11-13T10:01:00.417Z,50.65
2022-11-13T10:04:03.419Z,50.17
2022-11-13T10:07:05.509Z,49.69
2022-11-13T10:10:18.799Z,49.33
2022-11-13T10:13:05.832Z,49.14
2022-11-13T10:16:04.219Z,48.83
2022-11-13T10:18:50.700Z,48.62
2022-11-13T10:21:45.133Z,48.24
2022-11-13T10:24:40.933Z,48.09
2022-11-13T10:27:25.967Z,48.15
2022-11-13T10:30:16.827Z,47.53
2022-11-13T10:33:06.370Z,47.65
2022-11-13T10:36:20.510Z,46.95
2022-11-13T10:39:08.072Z,46.94
2022-11-13T10:41:55.023Z,46.90
2022-11-13T10:44:53.864Z,46.36
2022-11-13T10:48:03.087Z,46.31
2022-11-13T10:50:59.891Z,45.75
2022-11-13T10:53:44.814Z,45.87
2022-11-13T10:56:36.373Z,45.61
2022-11-13T10:59:21.596Z,45.66
2022-11-13T11:02:17.670Z,45.05
2022-11-13T11:05:24.363Z,44.68
2022-11-13T11:08:10.988Z,44.47
2022-11-13T11:11:18.605Z,43.85
2022-11-13T11:14:22.697Z,43.53
2022-11-13T11:17:11.016Z,43.51
2022-11-13T11:20:44.526Z,43.24
2022-11-13T11:23:55.813Z,43.13
2022-11-13T11:26:47.446Z,43.02
2022-11-13T11:29:44.996Z,42.53
2022-11-13T11:32:42.402Z,42.43
2022-11-13T11:35:49.492Z,41.77
2022-11-13T11:38:42.389Z,41.78
2022-11-13T11:41:34.515Z,41.66
2022-11-13T11:44:36.212Z,41.34
2022-11-13T11:47:21.342Z,41.46
2022-11-13T11:50:13.693Z,41.39
2022-11-13T11:53:31.698Z,41.12
2022-11-13T11:56:33.701Z,41.21
2022-11-13T11:59:53.502Z,41.17
2022-11-13T12:02:47.633Z,41.13
2022-11-13T12:05:55.899Z,41.13
2022-11-13T12:08:52.691Z,41.46
2022-11-13T12:11:48.602Z,41.32
2022-11-13T12:14:52.487Z,41.61
2022-11-13T12:17:56.078Z,41.48
2022-11-13T12:20:50.162Z,41.22
2022-11-13T12:24:01.653Z,40.90
2022-11-13T12:27:38.686Z,41.15
2022-11-13T12:31:05.288Z,41.09
2022-11-13T12:34:04.405Z,41.08
2022-11-13T12:36:50.984Z,41.02
2022-11-13T12:39:36.029Z,40.73
2022-11-13T12:42:36.424Z,40.76
2022-11-13T12:45:39.624Z,40.50
2022-11-13T12:48:37.277Z,40.33
2022-11-13T12:51:22.116Z,40.26
2022-11-13T12:54:10.648Z,40.06
2022-11-13T12:57:16.185Z,39.69
2022-11-13T13:00:26.687Z,39.51
2022-11-13T13:03:11.978Z,39.55
2022-11-13T13:06:25.129Z,39.37
2022-11-13T13:09:38.520Z,39.28
2022-11-13T13:12:48.028Z,38.99
2022-11-13T13:15:49.021Z,39.30
2022-11-13T13:18:38.985Z,39.11
2022-11-13T13:21:24.106Z,39.19
2022-11-13T13:24:36.532Z,39.11
2022-11-13T13:27:27.052Z,39.43
2022-11-13T13:30:25.168Z,39.55
2022-11-13T13:33:25.500Z,39.07
2022-11-13T13:36:36.921Z,39.45
2022-11-13T13:39:47.767Z,39.61
2022-11-13T13:42:50.594Z,39.62
2022-11-13T13:46:13.678Z,39.87
2022-11-13T13:49:05.669Z,40.08
2022-11-13T13:51:54.784Z,39.83
2022-11-13T13:54:45.593Z,39.74
2022-11-13T13:57:30.880Z,39.99
2022-11-13T14:00:18.995Z,39.94
2022-11-13T14:03:04.764Z,40.11
2022-11-13T14:05:51.154Z,40.32
2022-11-13T14:08:36.255Z,40.15
2022-11-13T14:11:29.354Z,40.58
2022-11-13T14:14:22.939Z,40.27
2022-11-13T14:17:10.739Z,40.69
2022-11-13T14:20:00.913Z,40.46
2022-11-13T14:22:55.075Z,40.60
2022-11-13T14:25:45.039Z,40.98
2022-11-13T14:28:42.989Z,40.66
2022-11-13T14:31:37.300Z,40.71
2022-11-13T14:34:26.677Z,41.23
2022-11-13T14:37:35.821Z,40.96
2022-11-13T14:40:20.881Z,40.95
2022-11-13T14:43:08.823Z,40.81
2022-11-13T14:46:05.777Z,41.24
2022-11-13T14:48:55.738Z,41.46
2022-11-13T14:51:41.584Z,41.24
2022-11-13T14:55:13.207Z,41.34
2022-11-13T14:57:50.181Z,41.59
2022-11-13T15:00:37.141Z,41.59
2022-11-13T15:03:22.525Z,41.61
2022-11-13T15:06:16.656Z,41.84
2022-11-13T15:09:02.664Z,41.79
2022-11-13T15:11:47.924Z,42.20
2022-11-13T15:14:39.722Z,41.94
2022-11-13T15:17:24.791Z,42.42
2022-11-13T15:20:16.018Z,42.27
2022-11-13T15:23:01.055Z,42.41
2022-11-13T15:25:46.197Z,42.28
2022-11-13T15:28:31.456Z,42.55
2022-11-13T15:31:26.459Z,42.41
2022-11-13T15:34:13.169Z,42.52
2022-11-13T15:37:13.380Z,42.49
2022-11-13T15:39:58.885Z,42.54
2022-11-13T15:42:44.848Z,42.52
2022-11-13T15:45:32.984Z,42.67
2022-11-13T15:48:18.653Z,42.92
2022-11-13T15:51:04.148Z,42.60
2022-11-13T15:53:53.983Z,42.61
2022-11-13T15:56:39.622Z,42.87
2022-11-13T15:59:24.535Z,43.21
2022-11-13T16:02:09.933Z,43.18
2022-11-13T16:04:57.474Z,42.78
2022-11-13T16:07:42.808Z,43.14
2022-11-13T16:10:28.138Z,43.09
2022-11-13T16:13:13.418Z,43.41
2022-11-13T16:16:00.790Z,43.71
2022-11-13T16:18:46.079Z,43.69
2022-11-13T16:21:31.215Z,43.68
2022-11-13T16:24:24.502Z,43.88
2022-11-13T16:27:36.103Z,43.84
2022-11-13T16:30:23.335Z,43.90
2022-11-13T16:33:12.454Z,43.99
2022-11-13T16:35:57.861Z,44.19
2022-11-13T16:38:43.139Z,44.19
2022-11-13T16:41:30.596Z,44.62
2022-11-13T16:44:32.052Z,44.30
2022-11-13T16:47:25.509Z,44.81
2022-11-13T16:50:14.956Z,44.76
2022-11-13T16:53:01.149Z,44.96
2022-11-13T16:55:47.820Z,45.17
2022-11-13T16:58:33.018Z,45.29
2022-11-13T17:01:22.424Z,45.70
2022-11-13T17:04:07.428Z,45.47
2022-11-13T17:06:56.887Z,45.74
2022-11-13T17:09:45.305Z,46.03
2022-11-13T17:12:30.777Z,46.33
2022-11-13T17:15:15.835Z,46.55
2022-11-13T17:18:01.094Z,46.68
2022-11-13T17:20:50.825Z,46.59
2022-11-13T17:23:35.812Z,46.60
2022-11-13T17:26:20.876Z,47.05
2022-11-13T17:29:06.861Z,46.88
2022-11-13T17:31:52.103Z,47.07
2022-11-13T17:34:40.162Z,47.36
2022-11-13T17:37:25.536Z,47.09
2022-11-13T17:40:11.639Z,47.52
2022-11-13T17:42:56.754Z,47.74
2022-11-13T17:45:52.298Z,47.64
2022-11-13T17:48:37.785Z,47.28
2022-11-13T17:51:22.971Z,47.66
2022-11-13T17:54:08.211Z,47.55
2022-11-13T17:57:08.526Z,47.69
2022-11-13T17:59:53.512Z,48.04
2022-11-13T18:02:39.707Z,48.37
2022-11-13T18:05:25.704Z,48.33
2022-11-13T18:08:14.128Z,48.48
2022-11-13T18:10:59.360Z,48.35
2022-11-13T18:13:46.465Z,48.54
2022-11-13T18:16:34.569Z,48.40
2022-11-13T18:19:19.646Z,48.25
2022-11-13T18:22:04.444Z,48.89
2022-11-13T18:24:54.211Z,49.02
2022-11-13T18:27:40.012Z,49.13
2022-11-13T18:30:25.103Z,49.31
2022-11-13T18:33:10.467Z,49.37
2022-11-13T18:36:00.464Z,49.59
2022-11-13T18:38:45.663Z,49.49
2022-11-13T18:41:32.463Z,49.52
2022-11-13T18:44:20.799Z,49.39
2022-11-13T18:47:06.037Z,49.54
2022-11-13T18:49:51.075Z,49.51
2022-11-13T18:52:36.370Z,49.78
2022-11-13T18:55:21.706Z,49.81
2022-11-13T18:58:06.739Z,49.84
2022-11-13T19:00:51.570Z,49.96
2022-11-13T19:03:36.517Z,50.22
2022-11-13T19:06:23.253Z,50.00
2022-11-13T19:09:11.772Z,50.03
2022-11-13T19:11:56.999Z,50.35
2022-11-13T19:14:46.198Z,50.09
2022-11-13T19:17:31.675Z,50.01
2022-11-13T19:20:18.557Z,50.44
2022-11-13T19:23:08.855Z,50.39
2022-11-13T19:25:58.481Z,50.54
2022-11-13T19:28:47.322Z,50.52
2022-11-13T19:31:32.453Z,50.75
2022-11-13T19:34:20.024Z,51.12
2022-11-13T19:37:04.924Z,50.86
2022-11-13T19:39:50.194Z,50.80
2022-11-13T19:42:40.792Z,50.95
2022-11-13T19:45:29.464Z,51.06
2022-11-13T19:48:17.818Z,50.69
2022-11-13T19:51:10.927Z,50.80
2022-11-13T19:53:58.412Z,51.03
2022-11-13T19:56:44.704Z,50.95
2022-11-13T19:59:29.987Z,51.18
2022-11-13T20:02:15.024Z,51.09
2022-11-13T20:05:04.433Z,51.29
2022-11-13T20:07:49.657Z,51.29
2022-11-13T20:10:34.588Z,51.11
2022-11-13T20:13:19.880Z,51.67
2022-11-13T20:16:12.234Z,51.29
2022-11-13T20:18:58.094Z,51.55
2022-11-13T20:21:43.571Z,51.49
2022-11-13T20:24:31.649Z,51.49
2022-11-13T20:27:17.107Z,51.54
2022-11-13T20:30:02.784Z,51.60
2022-11-13T20:32:47.845Z,51.65
2022-11-13T20:35:33.618Z,51.79
2022-11-13T20:38:18.492Z,51.80
2022-11-13T20:41:07.847Z,51.91
2022-11-13T20:43:56.184Z,51.67
2022-11-13T20:46:41.645Z,51.78
2022-11-13T20:49:26.494Z,51.96
2022-11-13T20:52:12.151Z,51.86
2022-11-13T20:55:01.444Z,51.88
2022-11-13T20:57:46.600Z,51.85
2022-11-13T21:00:31.872Z,51.97
2022-11-13T21:03:17.200Z,52.15
2022-11-13T21:06:07.230Z,52.28
2022-11-13T21:08:56.665Z,51.86
2022-11-13T21:11:41.946Z,51.84
2022-11-13T21:14:28.618Z,52.21
2022-11-13T21:17:13.665Z,52.03
2022-11-13T21:19:59.041Z,52.02
2022-11-13T21:22:44.261Z,51.99
2022-11-13T21:25:30.010Z,51.89
2022-11-13T21:28:17.327Z,51.96
2022-11-13T21:31:18.059Z,52.08
2022-11-13T21:34:04.102Z,51.91
2022-11-13T21:36:49.579Z,52.21
2022-11-13T21:39:34.649Z,52.02
2022-11-13T21:42:19.838Z,52.11
2022-11-13T21:45:09.903Z,52.06
2022-11-13T21:47:55.157Z,51.78
2022-11-13T21:50:40.388Z,51.88
2022-11-13T21:53:25.830Z,51.99
2022-11-13T21:56:16.158Z,52.09
2022-11-13T21:59:01.650Z,51.79
2022-11-13T22:01:47.077Z,51.86
2022-11-13T22:04:33.564Z,51.76
2022-11-13T22:07:18.528Z,52.00
2022-11-13T22:10:08.098Z,51.97
2022-11-13T22:12:53.293Z,52.12
2022-11-13T22:15:38.529Z,52.08
2022-11-13T22:18:24.304Z,51.94
2022-11-13T22:21:10.243Z,51.94
2022-11-13T22:23:55.924Z,51.79
2022-11-13T22:26:50.461Z,51.93
2022-11-13T22:29:35.375Z,51.95
2022-11-13T22:32:20.279Z,52.24
2022-11-13T22:35:09.816Z,52.20
2022-11-13T22:37:54.768Z,52.15
2022-11-13T22:40:39.685Z,52.10
2022-11-13T22:43:24.879Z,52.25
2022-11-13T22:46:17.886Z,52.20
2022-11-13T22:49:05.006Z,52.26
2022-11-13T22:51:50.009Z,52.18
2022-11-13T22:54:36.529Z,52.23
2022-11-13T22:57:21.998Z,52.37
2022-11-13T23:00:09.258Z,52.15
2022-11-13T23:02:54.656Z,52.26
2022-11-13T23:05:39.814Z,52.17
2022-11-13T23:08:25.128Z,52.19
2022-11-13T23:11:23.193Z,52.25
2022-11-13T23:14:11.563Z,52.21
2022-11-13T23:17:05.496Z,52.37
2022-11-13T23:19:50.384Z,52.38
2022-11-13T23:22:35.477Z,52.31
2022-11-13T23:25:24.118Z,52.06
2022-11-13T23:28:09.963Z,52.14
2022-11-13T23:30:55.298Z,52.10
2022-11-13T23:33:40.647Z,52.35
2022-11-13T23:36:27.541Z,52.31
2022-11-13T23:39:14.750Z,52.40
2022-11-13T23:41:59.783Z,52.48
2022-11-13T23:44:44.776Z,52.38
2022-11-13T23:47:29.843Z,52.24
2022-11-13T23:50:15.014Z,52.48
2022-11-13T23:52:59.929Z,52.34
2022-11-13T23:55:45.672Z,52.37
2022-11-13T23:58:32.463Z,52.36
